Latest Coastal Weather Observations for Gove Airport

IDD60701

Issued at 11:51 pm CST Tuesday 27 January 2015 (issued every 10 minutes, with the page automatically refreshed every 10 minutes)

About coastal observations | Map of coastal stations | Coastal observations for NT | Marine services | Other Formats
Station Details ID: 014508 Name: GOVE AIRPORT Lat: -12.27 Lon: 136.82 Height: 51.6 m
Data from the previous 72 hours. | See also: Recent months at Gove Airport
Date/Time
CST
Temp

°C
Wind Pressure Rain
since 9am
mm
Weather Cloud Vis
km
Sea
Height
m
Swell
Dir
 
Speed
knots
Gust
knots
hPa Trend Height
m
Period
s
Dir
27/11:30pm 25.3 WSW 2 4 1005.8 - 37.8 - Partly cloudy 10 - - - -
27/11:00pm 25.1 WSW 4 5 1005.9 - 37.8 - Partly cloudy 10 - - - -
27/10:30pm 24.9 CALM 0 0 1005.9 - 37.6 - Partly cloudy 10 - - - -
27/10:00pm 24.8 SE 2 4 1005.5 - 37.2 Rain Mostly clear 10 - - - -
27/09:30pm 24.6 SE 5 7 1005.6 - 37.2 Rain Mostly clear 10 - - - -
27/09:00pm 24.7 NNE 3 7 1005.5 R 37.2 Rain Mostly cloudy 18 - - - -
27/08:42pm 24.4 SSW 3 6 1005.6 - 37.2 Showers Mostly clear 10 - - - -
27/08:30pm 24.6 S 6 11 1005.7 - 37.0 Thunderstorm Mostly clear 2 - - - -
27/08:00pm 25.9 ENE 2 5 1005.2 - 24.2 Thunderstorm Mostly clear 2 - - - -
27/07:41pm 26.0 N 12 14 1005.0 - 22.2 Thunderstorm Mostly clear 4 - - - -
27/07:30pm 26.4 NNE 10 13 1004.6 - 21.2 Showers Mostly clear 3 - - - -
27/07:05pm 26.8 NNE 7 9 1004.2 - 12.6 Showers Mostly clear 2 - - - -
27/07:00pm 26.9 NNE 7 9 1004.0 - 12.4 Showers Mostly clear 6 - - - -
27/06:48pm 26.7 E 6 7 1003.6 - 12.2 Showers Mostly clear 6 - - - -
27/06:30pm 26.8 SSE 8 11 1003.2 - 7.0 Showers Partly cloudy 1 - - - -
27/06:26pm 27.1 SSE 6 10 1003.3 - 2.6 Showers Mostly clear 0.9 - - - -
27/06:19pm 27.6 SSE 6 10 1003.3 - 1.4 Showers Mostly clear 3 - - - -
27/06:00pm 29.2 SE 8 10 1002.7 R 0.2 Distant precip. Mostly cloudy 25 - - - -
27/05:30pm 30.8 SSW 3 5 1002.7 - 0.2 - Mostly clear 10 - - - -
27/05:00pm 31.0 SSW 3 5 1002.5 - 0.2 - Mostly clear 10 - - - -
27/04:30pm 30.9 SSE 5 7 1002.4 - 0.2 - Mostly clear 10 - - - -
27/04:00pm 30.1 SSE 6 9 1002.2 - 0.2 - Mostly clear 10 - - - -
27/03:30pm 32.2 WNW 9 14 1002.3 - 0.2 - Mostly clear 10 - - - -
27/03:00pm 32.4 NW 11 15 1002.4 F 0.2 Distant precip. Mostly cloudy 25 - - - -
27/02:30pm 31.9 WNW 8 13 1003.1 - 0.2 - Mostly clear 10 - - - -
27/02:00pm 31.7 W 8 9 1003.8 - 0.2 - Mostly clear 10 - - - -
27/01:30pm 31.7 NW 10 13 1004.2 - 0.2 - - 10 - - - -
27/01:00pm 32.0 NNW 9 14 1004.8 - 0.2 - - 10 - - - -
27/12:30pm 31.4 NW 9 15 1005.4 - 0.2 - Mostly clear 10 - - - -
27/12:00pm 31.1 NW 7 13 1005.7 F 0.2 Fine Partly cloudy 26 - - - -
27/11:30am 30.4 WNW 7 12 1006.5 - 0.2 - Mostly clear 10 - - - -
27/11:00am 29.2 W 7 11 1006.8 - 0.2 - Mostly clear 10 - - - -
27/10:30am 28.7 W 7 10 1006.7 - 0.0 - Mostly clear 10 - - - -
27/10:00am 27.8 W 7 11 1007.0 - 0.0 - Mostly clear 10 - - - -
27/09:30am 27.5 WNW 7 10 1007.3 - 0.0 - Mostly clear 10 - - - -
27/09:00am 27.3 NW 8 11 1006.7 F 53.6 Fine Cloudy 22 - - - -
27/08:30am 26.8 WNW 7 10 1007.1 - 53.6 - Mostly clear 10 - - - -
27/08:00am 26.6 WNW 8 12 1007.0 - 53.6 - Mostly clear 10 - - - -
27/07:30am 26.5 NW 10 16 1007.0 - 53.6 - Mostly clear 10 - - - -
27/07:00am 26.3 NW 11 14 1007.1 - 53.6 - Mostly clear 10 - - - -
27/06:30am 26.3 NW 11 16 1006.8 - 53.6 - Mostly clear 10 - - - -
27/06:00am 26.0 WNW 6 9 1006.0 R 53.6 Lightning Cloudy 27 - - - -
27/05:30am 26.0 WNW 6 9 1005.9 - 53.6 - Partly cloudy 10 - - - -
27/05:00am 25.8 WNW 6 8 1005.8 - 53.6 - Partly cloudy 10 - - - -
27/04:30am 26.0 NW 6 8 1005.6 - 53.6 - Partly cloudy 10 - - - -
27/04:00am 26.1 WNW 6 9 1005.1 - 53.6 - Partly cloudy 10 - - - -
27/03:30am 25.8 N 1 5 1005.6 - 53.6 - Partly cloudy 10 - - - -
27/03:29am 25.8 N 1 5 1005.6 - 53.6 - Partly cloudy 10 - - - -
27/03:00am 25.8 CALM 0 0 1005.0 - 53.6 - Cloudy 10 - - - -
27/02:57am 25.8 CALM 0 0 1005.3 - 53.6 - Partly cloudy 10 - - - -
27/02:30am 25.5 NNW 2 3 1005.3 - 53.6 - Partly cloudy 10 - - - -
27/02:00am 25.3 N 2 3 1005.9 - 53.6 - Partly cloudy 10 - - - -
27/01:30am 25.3 CALM 0 0 1006.4 - 53.6 - Partly cloudy 10 - - - -
27/01:00am 25.3 CALM 0 3 1006.8 - 53.6 - Partly cloudy 10 - - - -
27/12:30am 25.0 S 1 5 1007.2 - 53.6 - Partly cloudy 10 - - - -
27/12:00am 25.0 CALM 0 0 1007.3 - 53.6 - Cloudy 10 - - - -
 
Date/Time
CST
Temp

°C
Wind Pressure Rain
since 9am
mm
Weather Cloud Vis
km
Sea
Height
m
Swell
Dir
 
Speed
knots
Gust
knots
hPa Trend Height
m
Period
s
Dir
26/11:30pm 25.0 CALM 0 0 1008.0 - 53.6 - Partly cloudy 10 - - - -
26/11:00pm 25.0 S 1 3 1008.0 - 53.6 - Partly cloudy 10 - - - -
26/10:30pm 24.8 CALM 0 2 1008.0 - 53.6 - Partly cloudy 10 - - - -
26/10:00pm 25.0 E 1 5 1007.7 - 53.6 - Mostly clear 10 - - - -
26/09:30pm 25.0 E 4 5 1007.5 - 53.6 - Mostly clear 10 - - - -
26/09:00pm 24.9 SE 5 6 1006.9 F 53.6 Rain Mostly cloudy 20 - - - -
26/08:55pm 24.9 ESE 5 6 1007.1 - 53.6 Thunder Mostly clear 10 - - - -
26/08:30pm 25.0 S 5 11 1007.6 - 51.8 Thunderstorm Mostly clear 2 - - - -
26/08:00pm 25.2 S 8 13 1007.5 - 47.6 Thunderstorm Mostly clear 2 - - - -
26/07:49pm 25.7 SSW 8 13 1007.2 - 46.0 Thunderstorm Partly cloudy 3 - - - -
26/07:30pm 25.8 S 6 10 1006.7 - 46.0 Showers Partly cloudy 9 - - - -
26/07:13pm 25.6 SSW 5 6 1006.6 - 45.8 Showers Partly cloudy 4 - - - -
26/07:00pm 25.6 SSW 5 7 1006.5 - 45.4 Showers Mostly clear 4 - - - -
26/06:53pm 25.6 SW 5 6 1006.6 - 44.8 Showers Mostly clear 3 - - - -
26/06:30pm 25.4 W 3 4 1006.1 - 43.0 Showers Mostly clear 3 - - - -
26/06:19pm 25.5 NE 4 6 1005.8 - 42.8 Showers Mostly clear 2 - - - -
26/06:00pm 25.6 N 4 6 1005.8 R 40.0 Showers Mostly cloudy 4 - - - -
26/05:27pm 25.7 E 10 12 1005.6 - 37.2 Showers Mostly clear 2 - - - -
26/05:14pm 25.8 E 11 13 1005.4 - 36.6 Showers Mostly clear 3 - - - -
26/05:00pm 25.9 E 9 14 1005.6 - 29.0 Showers Partly cloudy 0.8 - - - -
26/04:50pm 26.0 S 7 15 1005.4 - 15.4 Showers Partly cloudy 0.6 - - - -
26/04:36pm 26.2 SSE 9 15 1004.9 - 3.0 Showers Partly cloudy 1 - - - -
26/04:27pm 28.3 S 5 9 1005.1 - 0.0 Showers Mostly clear 2 - - - -
26/04:00pm 30.8 SSE 7 11 1004.6 - 0.0 - Mostly clear 10 - - - -
26/03:30pm 32.4 NNW 12 17 1004.7 - 0.0 - Mostly clear 10 - - - -
26/03:00pm 32.4 WNW 10 15 1004.8 F 0.0 Distant precip. Mostly cloudy 24 - - - -
26/02:30pm 33.5 WNW 10 15 1005.2 - 0.0 - Mostly clear 10 - - - -
26/02:00pm 33.2 WNW 13 18 1005.6 - 0.0 - Partly cloudy 10 - - - -
26/01:30pm 33.3 NW 11 17 1005.9 - 0.0 - - 10 - - - -
26/01:00pm 33.3 WNW 11 15 1006.5 - 0.0 - - 10 - - - -
26/12:30pm 32.7 WNW 10 15 1007.1 - 0.0 - Mostly clear 10 - - - -
26/12:00pm 32.3 NW 11 14 1007.4 F 0.0 Fine Mostly cloudy 25 - - - -
26/11:30am 32.0 NW 14 19 1008.1 - 0.0 - Mostly clear 10 - - - -
26/11:00am 32.0 NW 11 16 1008.6 - 0.0 - Mostly clear 10 - - - -
26/10:30am 30.8 WNW 9 13 1008.8 - 0.0 - Mostly clear 10 - - - -
26/10:00am 30.6 NW 9 13 1008.9 - 0.0 - Mostly clear 10 - - - -
26/09:30am 30.3 WNW 8 12 1008.9 - 0.0 - Mostly clear 10 - - - -
26/09:00am 30.1 WNW 8 12 1008.6 F 0.0 Fine Mostly cloudy 25 - - - -
26/08:30am 29.0 WNW 7 13 1009.2 - 0.0 - Mostly clear 10 - - - -
26/08:00am 28.6 NW 7 9 1009.1 - 0.0 - Mostly clear 10 - - - -
26/07:30am 28.0 NW 5 7 1009.0 - 0.0 - Mostly clear 10 - - - -
26/07:00am 27.0 WNW 3 6 1008.6 - 0.0 - Mostly clear 10 - - - -
26/06:30am 26.5 W 5 7 1008.3 - 0.0 - Mostly clear 10 - - - -
26/06:00am 26.7 W 6 9 1007.7 S 0.0 Fine Mostly clear 23 - - - -
26/05:30am 26.7 WNW 6 9 1007.7 - 0.0 - - 10 - - - -
26/05:00am 27.3 WNW 7 10 1007.6 - 0.0 - Partly cloudy 10 - - - -
26/04:30am 27.5 WNW 7 10 1007.6 - 0.0 - - 10 - - - -
26/04:00am 27.5 WNW 7 9 1007.5 - 0.0 - Partly cloudy 10 - - - -
26/03:30am 27.5 WNW 8 10 1007.6 - 0.0 - Partly cloudy 10 - - - -
26/03:00am 27.5 WNW 7 10 1007.0 - 0.0 - Cloudy 10 - - - -
26/02:30am 27.5 WNW 8 11 1007.4 - 0.0 - Partly cloudy 10 - - - -
26/02:00am 27.7 WNW 9 14 1007.5 - 0.0 - - 10 - - - -
26/01:30am 27.8 NW 10 15 1007.7 - 0.0 - Partly cloudy 10 - - - -
26/01:00am 27.5 NW 8 12 1008.5 - 0.0 - Partly cloudy 10 - - - -
26/12:30am 27.5 NW 9 11 1009.0 - 0.0 - - 10 - - - -
26/12:00am 27.6 NW 7 9 1008.8 - 0.0 - - 10 - - - -
 
Date/Time
CST
Temp

°C
Wind Pressure Rain
since 9am
mm
Weather Cloud Vis
km
Sea
Height
m
Swell
Dir
 
Speed
knots
Gust
knots
hPa Trend Height
m
Period
s
Dir
25/11:30pm 27.5 WNW 7 9 1009.6 - 0.0 - Partly cloudy 10 - - - -
25/11:00pm 27.7 WNW 7 10 1009.5 - 0.0 - Partly cloudy 10 - - - -
25/10:30pm 27.6 WNW 7 9 1009.5 - 0.0 - Partly cloudy 10 - - - -
25/10:00pm 27.8 NW 8 11 1009.2 - 0.0 - Mostly clear 10 - - - -
25/09:30pm 28.0 NW 8 11 1008.9 - 0.0 - - 10 - - - -
25/09:00pm 28.0 NW 9 13 1008.3 R 0.0 Fine Mostly clear 22 - - - -
25/08:30pm 28.3 NW 9 12 1008.1 - 0.0 - - 10 - - - -
25/08:00pm 28.4 NW 11 16 1007.6 - 0.0 - Mostly clear 10 - - - -
25/07:30pm 28.5 NW 11 15 1007.0 - 0.0 - Mostly clear 10 - - - -
25/07:00pm 28.9 NW 12 16 1006.8 - 0.0 - Mostly clear 10 - - - -
25/06:30pm 29.6 NW 14 21 1006.3 - 0.0 - Mostly clear 10 - - - -
25/06:00pm 30.1 NNW 17 21 1005.6 F 0.0 Fine Mostly clear 23 - - - -
25/05:30pm 31.5 NW 12 16 1005.6 - 0.0 - Mostly clear 10 - - - -
25/05:00pm 31.9 NW 13 19 1005.6 - 0.0 - Mostly clear 10 - - - -
25/04:30pm 32.5 NW 14 19 1005.7 - 0.0 - Mostly clear 10 - - - -
25/04:00pm 32.9 NW 15 19 1005.8 - 0.0 - Mostly clear 10 - - - -
25/03:30pm 32.3 WNW 13 19 1006.0 - 0.0 - Mostly clear 10 - - - -
25/03:00pm 32.6 NW 13 22 1006.1 F 0.0 Fine Partly cloudy 23 - - - -
25/02:30pm 33.2 NW 14 20 1007.0 - 0.0 - Mostly clear 10 - - - -
25/02:00pm 32.6 NW 14 22 1007.5 - 0.0 - Partly cloudy 10 - - - -
25/01:30pm 32.7 NW 15 22 1007.9 - 0.0 - Partly cloudy 10 - - - -
25/01:00pm 32.8 NW 15 22 1008.2 - 0.0 - Mostly clear 10 - - - -
25/12:30pm 31.3 NW 15 22 1008.8 - 0.0 - Partly cloudy 10 - - - -
25/12:00pm 31.9 NW 13 23 1008.6 F 0.0 Fine Mostly clear 27 - - - -
25/11:30am 31.2 NW 13 19 1009.4 - 0.0 - Mostly clear 10 - - - -
25/11:00am 30.8 NW 14 19 1009.8 - 0.0 - Mostly clear 10 - - - -
25/10:30am 30.7 NW 11 15 1010.1 - 0.0 - Mostly clear 10 - - - -
25/10:00am 30.3 NW 12 18 1010.2 - 0.0 - Mostly clear 10 - - - -
25/09:30am 29.5 NW 11 16 1010.2 - 0.0 - Mostly clear 10 - - - -
25/09:00am 28.8 NW 11 15 1009.9 F 1.2 Fine Partly cloudy 26 - - - -
25/08:30am 28.6 W 7 11 1010.1 - 1.2 - Mostly clear 10 - - - -
25/08:00am 28.3 WNW 6 10 1009.8 - 1.2 - Mostly clear 10 - - - -
25/07:30am 27.5 WNW 8 11 1009.8 - 1.2 - Mostly clear 10 - - - -
25/07:00am 27.1 NW 8 11 1009.4 - 1.2 - Mostly clear 10 - - - -
25/06:30am 27.2 NW 9 12 1009.0 - 1.2 - Mostly clear 10 - - - -
25/06:00am 27.3 NW 9 13 1008.4 R 1.2 Fine Mostly cloudy 20 - - - -
25/05:30am 27.2 NW 9 13 1008.2 - 1.2 - - 10 - - - -
25/05:00am 27.2 NW 10 13 1007.4 - 1.2 - - 10 - - - -
25/04:30am 27.0 NW 10 12 1007.0 - 1.2 - - 10 - - - -
25/04:00am 27.2 NW 12 17 1006.8 - 1.2 - - 10 - - - -
25/03:30am 27.3 NW 11 15 1007.0 - 1.2 - Partly cloudy 10 - - - -
25/03:00am 27.2 NW 10 15 1006.5 - 1.2 - - 10 - - - -
25/02:30am 27.3 NW 11 16 1006.7 - 1.2 - - 10 - - - -
25/02:00am 27.1 NW 10 14 1006.9 - 1.2 - - 10 - - - -
25/01:30am 27.1 NW 11 14 1007.1 - 1.2 - - 10 - - - -
25/01:00am 27.1 NW 8 11 1007.4 - 1.2 - - 10 - - - -
25/12:30am 27.3 NW 8 11 1007.9 - 1.2 - - 10 - - - -
25/12:00am 27.3 NW 10 12 1008.1 - 1.2 - - 10 - - - -

Other Formats:

Comma delimited format used in spreadsheet applications
http://www.bom.gov.au/fwo/IDD60701/IDD60701.94150.axf

JavaScript Object Notation format (JSON) in row-major order
http://www.bom.gov.au/fwo/IDD60701/IDD60701.94150.json